Time,TemperatureF,DewpointF,PressureIn,WindDirection,WindDirectionDegrees,WindSpeedMPH,WindSpeedGustMPH,Humidity,HourlyPrecipIn,Conditions,Clouds,dailyrainin,SolarRadiationWatts/m^2,SoftwareType,DateUTC
2013-03-23 00:00:00,34.9,24.0,29.78,West,266,19.0,25.0,64,0.00,,---,0.12,0.00,VWS V14.01,2013-03-23 04:00:00,
2013-03-23 00:05:00,34.8,24.2,29.78,West,263,14.0,21.0,65,0.00,,---,0.00,0.00,VWS V14.01,2013-03-23 04:05:00,
2013-03-23 00:10:00,34.7,24.5,29.78,West,265,14.0,21.0,66,0.00,,---,0.00,0.00,VWS V14.01,2013-03-23 04:10:00,
2013-03-23 00:15:00,34.8,25.0,29.78,West,273,16.0,21.0,67,0.00,,---,0.00,0.00,VWS V14.01,2013-03-23 04:15:00,
2013-03-23 00:20:00,34.6,24.8,29.78,West,261,20.0,20.0,67,0.00,,---,0.00,0.00,VWS V14.01,2013-03-23 04:20:00,
2013-03-23 00:25:00,34.5,24.0,29.78,WNW,284,17.0,23.0,65,0.00,,---,0.00,0.00,VWS V14.01,2013-03-23 04:25:00,
2013-03-23 00:30:00,34.4,23.9,29.78,West,275,13.0,29.0,65,0.00,,---,0.00,0.00,VWS V14.01,2013-03-23 04:30:00,
2013-03-23 00:35:00,34.3,23.4,29.78,West,271,20.0,26.0,64,0.00,,---,0.00,0.00,VWS V14.01,2013-03-23 04:35:00,
2013-03-23 00:40:00,34.3,24.5,29.78,West,277,17.0,26.0,67,0.00,,---,0.00,0.00,VWS V14.01,2013-03-23 04:40:00,
2013-03-23 00:45:00,34.3,24.5,29.78,NW,306,17.0,26.0,67,0.00,,---,0.00,0.00,VWS V14.01,2013-03-23 04:45:00,
2013-03-23 00:50:00,34.2,23.7,29.78,West,278,22.0,26.0,65,0.00,,---,0.00,0.00,VWS V14.01,2013-03-23 04:50:00,
2013-03-23 00:55:00,34.2,24.0,29.78,West,272,20.0,26.0,66,0.00,,---,0.00,0.00,VWS V14.01,2013-03-23 04:55:00,
2013-03-23 01:00:00,34.1,23.6,29.78,West,263,14.0,26.0,65,0.00,,---,0.00,0.00,VWS V14.01,2013-03-23 05:00:00,
2013-03-23 01:05:00,34.1,24.0,29.78,West,262,19.0,21.0,66,0.00,,---,0.00,0.00,VWS V14.01,2013-03-23 05:05:00,
2013-03-23 01:10:00,34.1,23.6,29.78,West,261,19.0,21.0,65,0.00,,---,0.00,0.00,VWS V14.01,2013-03-23 05:10:00,
2013-03-23 01:15:00,34.0,23.5,29.78,West,269,19.0,21.0,65,0.00,,---,0.00,0.00,VWS V14.01,2013-03-23 05:15:00,
2013-03-23 01:20:00,34.0,24.6,29.78,West,281,19.0,24.0,68,0.00,,---,0.00,0.00,VWS V14.01,2013-03-23 05:20:00,
2013-03-23 01:25:00,34.0,23.9,29.78,West,265,21.0,25.0,66,0.00,,---,0.00,0.00,VWS V14.01,2013-03-23 05:25:00,
2013-03-23 01:30:00,33.9,23.8,29.79,West,262,20.0,25.0,66,0.00,,---,0.00,0.00,VWS V14.01,2013-03-23 05:30:00,
2013-03-23 01:35:00,33.9,23.4,29.78,West,267,15.0,25.0,65,0.00,,---,0.00,0.00,VWS V14.01,2013-03-23 05:35:00,
2013-03-23 01:40:00,33.9,24.1,29.78,West,269,17.0,26.0,67,0.00,,---,0.00,0.00,VWS V14.01,2013-03-23 05:40:00,
2013-03-23 01:45:00,33.9,23.8,29.79,West,273,16.0,26.0,66,0.00,,---,0.00,0.00,VWS V14.01,2013-03-23 05:45:00,
2013-03-23 01:50:00,33.8,24.4,29.79,WNW,297,17.0,19.0,68,0.00,,---,0.00,0.00,VWS V14.01,2013-03-23 05:50:00,
2013-03-23 01:55:00,33.8,23.7,29.78,West,269,21.0,24.0,66,0.00,,---,0.00,0.00,VWS V14.01,2013-03-23 05:55:00,
2013-03-23 02:00:00,33.8,22.9,29.78,West,270,26.0,26.0,64,0.00,,---,0.00,0.00,VWS V14.01,2013-03-23 06:00:00,
2013-03-23 02:05:00,33.8,23.7,29.78,West,266,18.0,27.0,66,0.00,,---,0.00,0.00,VWS V14.01,2013-03-23 06:05:00,
2013-03-23 02:10:00,33.8,22.9,29.78,West,266,19.0,27.0,64,0.00,,---,0.00,0.00,VWS V14.01,2013-03-23 06:10:00,
2013-03-23 02:15:00,33.7,23.2,29.78,West,273,8.0,27.0,65,0.00,,---,0.00,0.00,VWS V14.01,2013-03-23 06:15:00,
2013-03-23 02:20:00,33.7,23.2,29.78,West,267,17.0,19.0,65,0.00,,---,0.00,0.00,VWS V14.01,2013-03-23 06:20:00,
2013-03-23 02:25:00,33.7,23.6,29.78,West,269,15.0,19.0,66,0.00,,---,0.00,0.00,VWS V14.01,2013-03-23 06:25:00,
2013-03-23 02:30:00,33.7,22.8,29.78,West,263,19.0,20.0,64,0.00,,---,0.00,0.00,VWS V14.01,2013-03-23 06:30:00,
2013-03-23 02:35:00,33.7,23.6,29.78,West,264,15.0,19.0,66,0.00,,---,0.00,0.00,VWS V14.01,2013-03-23 06:35:00,
2013-03-23 02:40:00,33.7,23.6,29.78,West,261,18.0,23.0,66,0.00,,---,0.00,0.00,VWS V14.01,2013-03-23 06:40:00,
2013-03-23 02:45:00,33.6,23.1,29.78,West,262,19.0,23.0,65,0.00,,---,0.00,0.00,VWS V14.01,2013-03-23 06:45:00,
2013-03-23 02:50:00,33.6,23.8,29.78,West,268,17.0,19.0,67,0.00,,---,0.00,0.00,VWS V14.01,2013-03-23 06:50:00,
2013-03-23 02:55:00,33.5,23.4,29.78,West,267,17.0,22.0,66,0.00,,---,0.00,0.00,VWS V14.01,2013-03-23 06:55:00,
2013-03-23 03:00:00,33.5,23.7,29.78,West,268,18.0,22.0,67,0.00,,---,0.00,0.00,VWS V14.01,2013-03-23 07:00:00,
2013-03-23 03:05:00,33.4,23.3,29.78,WSW,258,18.0,19.0,66,0.00,,---,0.00,0.00,VWS V14.01,2013-03-23 07:05:00,
2013-03-23 03:11:00,33.4,23.3,29.78,West,281,18.0,19.0,66,0.00,,---,0.00,0.00,VWS V14.01,2013-03-23 07:11:00,
2013-03-23 03:15:00,33.7,23.2,29.78,West,263,15.0,27.0,65,0.00,,,0.00,0.00,VWS V14.01,2013-03-23 07:15:00,
2013-03-23 03:16:00,33.4,23.6,29.78,West,262,16.0,19.0,67,0.00,,---,0.00,0.00,VWS V14.01,2013-03-23 07:16:00,
2013-03-23 03:21:00,33.3,23.5,29.78,West,262,19.0,21.0,67,0.00,,---,0.00,0.00,VWS V14.01,2013-03-23 07:21:00,
2013-03-23 03:26:00,33.3,23.9,29.78,West,274,15.0,21.0,68,0.00,,---,0.00,0.00,VWS V14.01,2013-03-23 07:26:00,
2013-03-23 03:30:00,33.7,22.8,29.78,West,263,16.0,20.0,64,0.00,,,0.00,0.00,VWS V14.01,2013-03-23 07:30:00,
2013-03-23 03:31:00,33.3,23.9,29.78,West,268,18.0,21.0,68,0.00,,---,0.00,0.00,VWS V14.01,2013-03-23 07:31:00,
2013-03-23 03:36:00,33.3,23.9,29.78,West,268,18.0,18.0,68,0.00,,---,0.00,0.00,VWS V14.01,2013-03-23 07:36:00,
2013-03-23 03:41:00,33.3,24.2,29.78,WNW,300,16.0,21.0,69,0.00,,---,0.00,0.00,VWS V14.01,2013-03-23 07:41:00,
2013-03-23 03:45:00,33.3,24.2,29.77,West,263,20.0,24.0,69,0.00,,,0.00,0.00,VWS V14.01,2013-03-23 07:45:00,
2013-03-23 03:46:00,33.3,24.2,29.77,West,269,19.0,24.0,69,0.00,,---,0.00,0.00,VWS V14.01,2013-03-23 07:46:00,
2013-03-23 03:51:00,33.3,24.2,29.77,West,268,18.0,22.0,69,0.00,,---,0.00,0.00,VWS V14.01,2013-03-23 07:51:00,
2013-03-23 03:56:00,33.3,24.6,29.78,West,269,15.0,22.0,70,0.00,,---,0.00,0.00,VWS V14.01,2013-03-23 07:56:00,
2013-03-23 04:00:00,33.5,23.7,29.78,West,261,17.0,22.0,67,0.00,,,0.00,0.00,VWS V14.01,2013-03-23 08:00:00,
2013-03-23 04:01:00,33.2,24.5,29.77,WSW,257,15.0,22.0,70,0.00,,---,0.00,0.00,VWS V14.01,2013-03-23 08:01:00,
2013-03-23 04:06:00,33.1,24.4,29.77,West,266,16.0,21.0,70,0.00,,---,0.00,0.00,VWS V14.01,2013-03-23 08:06:00,
2013-03-23 04:11:00,33.2,24.8,29.77,West,266,17.0,21.0,71,0.00,,---,0.00,0.00,VWS V14.01,2013-03-23 08:11:00,
2013-03-23 04:15:00,33.4,23.6,29.78,West,259,18.0,19.0,67,0.00,,,0.00,0.00,VWS V14.01,2013-03-23 08:15:00,
2013-03-23 04:16:00,33.1,24.4,29.76,West,269,17.0,19.0,70,0.00,,---,0.00,0.00,VWS V14.01,2013-03-23 08:16:00,
2013-03-23 04:21:00,33.1,24.7,29.77,West,264,13.0,20.0,71,0.00,,---,0.00,0.00,VWS V14.01,2013-03-23 08:21:00,
2013-03-23 04:26:00,33.1,24.4,29.77,West,261,19.0,21.0,70,0.00,,---,0.00,0.00,VWS V14.01,2013-03-23 08:26:00,
2013-03-23 04:30:00,33.3,23.9,29.78,West,268,18.0,21.0,68,0.00,,,0.00,0.00,VWS V14.01,2013-03-23 08:30:00,
2013-03-23 04:31:00,33.0,24.6,29.77,WSW,254,14.0,18.0,71,0.00,,---,0.00,0.00,VWS V14.01,2013-03-23 08:31:00,
2013-03-23 04:36:00,33.1,25.1,29.76,West,269,14.0,18.0,72,0.00,,---,0.00,0.00,VWS V14.01,2013-03-23 08:36:00,
2013-03-23 04:41:00,33.0,24.6,29.77,West,263,15.0,19.0,71,0.00,,---,0.00,0.00,VWS V14.01,2013-03-23 08:41:00,
2013-03-23 04:45:00,33.0,24.3,29.77,West,259,16.0,21.0,70,0.00,,,0.00,0.00,VWS V14.01,2013-03-23 08:45:00,
2013-03-23 04:46:00,33.0,24.3,29.77,West,263,18.0,18.0,70,0.00,,---,0.00,0.00,VWS V14.01,2013-03-23 08:46:00,
2013-03-23 04:51:00,33.0,24.6,29.77,NW,315,13.0,21.0,71,0.00,,---,0.00,0.00,VWS V14.01,2013-03-23 08:51:00,
2013-03-23 04:56:00,33.0,24.3,29.77,West,276,16.0,21.0,70,0.00,,---,0.00,0.00,VWS V14.01,2013-03-23 08:56:00,
2013-03-23 05:00:00,33.0,24.6,29.77,West,276,14.0,21.0,71,0.00,,,0.00,0.00,VWS V14.01,2013-03-23 09:00:00,
2013-03-23 05:01:00,33.0,25.0,29.77,West,262,16.0,16.0,72,0.00,,---,0.00,0.00,VWS V14.01,2013-03-23 09:01:00,
2013-03-23 05:06:00,32.9,24.2,29.77,West,266,14.0,18.0,70,0.00,,---,0.00,0.00,VWS V14.01,2013-03-23 09:06:00,
2013-03-23 05:11:00,32.9,24.5,29.77,West,263,16.0,18.0,71,0.00,,---,0.00,0.00,VWS V14.01,2013-03-23 09:11:00,
2013-03-23 05:15:00,32.9,24.5,29.77,West,261,17.0,20.0,71,0.00,,,0.00,0.00,VWS V14.01,2013-03-23 09:15:00,
2013-03-23 05:16:00,32.9,24.5,29.76,West,261,17.0,17.0,71,0.00,,---,0.00,0.00,VWS V14.01,2013-03-23 09:16:00,
2013-03-23 05:22:00,33.0,24.6,29.76,West,265,14.0,19.0,71,0.00,,---,0.00,0.00,VWS V14.01,2013-03-23 09:22:00,
2013-03-23 05:27:00,33.1,25.4,29.77,West,269,14.0,19.0,73,0.00,,---,0.00,0.00,VWS V14.01,2013-03-23 09:27:00,
2013-03-23 05:30:00,33.0,24.6,29.77,West,263,17.0,21.0,71,0.00,,,0.00,0.00,VWS V14.01,2013-03-23 09:30:00,
2013-03-23 05:32:00,33.1,25.4,29.76,West,266,17.0,19.0,73,0.00,,---,0.00,0.00,VWS V14.01,2013-03-23 09:32:00,
2013-03-23 05:37:00,33.2,25.5,29.77,West,263,14.0,19.0,73,0.00,,---,0.00,0.00,VWS V14.01,2013-03-23 09:37:00,
2013-03-23 05:42:00,33.2,25.2,29.77,West,261,13.0,19.0,72,0.00,,---,0.00,0.00,VWS V14.01,2013-03-23 09:42:00,
2013-03-23 05:45:00,33.2,25.2,29.77,West,267,14.0,19.0,72,0.00,,,0.00,0.00,VWS V14.01,2013-03-23 09:45:00,
2013-03-23 05:47:00,33.1,25.1,29.77,West,261,13.0,15.0,72,0.00,,---,0.00,0.00,VWS V14.01,2013-03-23 09:47:00,
2013-03-23 05:52:00,33.2,25.5,29.77,West,261,11.0,16.0,73,0.00,,---,0.00,0.00,VWS V14.01,2013-03-23 09:52:00,
2013-03-23 05:57:00,33.1,24.7,29.77,West,263,12.0,16.0,71,0.00,,---,0.00,0.00,VWS V14.01,2013-03-23 09:57:00,
2013-03-23 06:00:00,33.0,24.6,29.77,West,276,14.0,21.0,71,0.00,,,0.00,0.00,VWS V14.01,2013-03-23 10:00:00,
2013-03-23 06:02:00,33.1,25.4,29.77,West,259,9.0,11.0,73,0.00,,---,0.00,0.00,VWS V14.01,2013-03-23 10:02:00,
2013-03-23 06:07:00,33.2,25.5,29.77,West,259,12.0,15.0,73,0.00,,---,0.00,0.00,VWS V14.01,2013-03-23 10:07:00,
2013-03-23 06:12:00,33.2,25.2,29.77,WSW,257,13.0,17.0,72,0.00,,---,0.00,0.00,VWS V14.01,2013-03-23 10:12:00,
2013-03-23 06:15:00,32.9,24.5,29.77,West,261,17.0,20.0,71,0.00,,,0.00,0.00,VWS V14.01,2013-03-23 10:15:00,
2013-03-23 06:17:00,33.2,25.5,29.77,West,259,15.0,17.0,73,0.00,,---,0.00,0.00,VWS V14.01,2013-03-23 10:17:00,
2013-03-23 06:22:00,33.2,25.2,29.77,West,267,15.0,17.0,72,0.00,,---,0.00,0.00,VWS V14.01,2013-03-23 10:22:00,
2013-03-23 06:27:00,33.2,25.8,29.77,West,266,20.0,20.0,74,0.00,,---,0.00,0.00,VWS V14.01,2013-03-23 10:27:00,
2013-03-23 06:30:00,33.2,25.5,29.76,West,261,17.0,20.0,73,0.00,,,0.00,0.00,VWS V14.01,2013-03-23 10:30:00,
2013-03-23 06:32:00,33.3,26.2,29.78,West,265,13.0,17.0,75,0.00,,---,0.00,0.00,VWS V14.01,2013-03-23 10:32:00,
2013-03-23 06:37:00,33.3,25.9,29.78,West,265,15.0,18.0,74,0.00,,---,0.00,0.00,VWS V14.01,2013-03-23 10:37:00,
2013-03-23 06:42:00,33.4,26.0,29.77,West,270,12.0,18.0,74,0.00,,---,0.00,5.00,VWS V14.01,2013-03-23 10:42:00,
2013-03-23 06:45:00,33.4,26.3,29.77,West,263,14.0,18.0,75,0.00,,,0.00,11.00,VWS V14.01,2013-03-23 10:45:00,
2013-03-23 06:47:00,33.4,26.3,29.77,West,263,16.0,16.0,75,0.00,,---,0.00,11.00,VWS V14.01,2013-03-23 10:47:00,
2013-03-23 06:52:00,33.5,26.4,29.77,WSW,248,14.0,18.0,75,0.00,,---,0.00,14.00,VWS V14.01,2013-03-23 10:52:00,
2013-03-23 06:57:00,33.7,26.6,29.77,West,259,17.0,19.0,75,0.00,,---,0.00,19.00,VWS V14.01,2013-03-23 10:57:00,
2013-03-23 07:00:00,33.7,26.3,29.77,West,263,17.0,20.0,74,0.00,,,0.00,21.00,VWS V14.01,2013-03-23 11:00:00,
2013-03-23 07:02:00,33.7,26.6,29.78,WSW,251,17.0,19.0,75,0.00,,---,0.00,23.00,VWS V14.01,2013-03-23 11:02:00,
2013-03-23 07:07:00,33.6,26.5,29.78,WSW,250,16.0,19.0,75,0.00,,---,0.00,30.00,VWS V14.01,2013-03-23 11:07:00,
2013-03-23 07:12:00,33.3,25.6,29.78,WSW,257,16.0,21.0,73,0.00,,---,0.00,30.00,VWS V14.01,2013-03-23 11:12:00,
2013-03-23 07:15:00,33.2,25.5,29.77,West,263,14.0,17.0,73,0.00,,,0.00,0.00,VWS V14.01,2013-03-23 11:15:00,
2013-03-23 07:17:00,33.3,26.2,29.77,WSW,242,19.0,19.0,75,0.00,,---,0.00,58.00,VWS V14.01,2013-03-23 11:17:00,
2013-03-23 07:22:00,33.3,26.2,29.77,WSW,248,20.0,22.0,75,0.00,,---,0.00,74.00,VWS V14.01,2013-03-23 11:22:00,
2013-03-23 07:27:00,33.3,26.2,29.77,WSW,242,19.0,22.0,75,0.00,,---,0.00,88.00,VWS V14.01,2013-03-23 11:27:00,
2013-03-23 07:30:00,33.3,25.9,29.77,West,265,13.0,21.0,74,0.00,,,0.00,0.00,VWS V14.01,2013-03-23 11:30:00,
2013-03-23 07:32:00,33.4,26.3,29.77,WSW,245,18.0,21.0,75,0.00,,---,0.00,107.00,VWS V14.01,2013-03-23 11:32:00,
2013-03-23 07:38:00,33.5,26.4,29.77,WSW,247,21.0,22.0,75,0.00,,---,0.00,128.00,VWS V14.01,2013-03-23 11:38:00,
2013-03-23 07:43:00,33.5,26.4,29.77,WSW,248,20.0,22.0,75,0.00,,---,0.00,149.00,VWS V14.01,2013-03-23 11:43:00,
2013-03-23 07:45:00,33.5,25.8,29.78,WSW,247,19.0,22.0,73,0.00,,,0.00,160.00,VWS V14.01,2013-03-23 11:45:00,
2013-03-23 07:48:00,33.6,26.2,29.77,WSW,244,18.0,20.0,74,0.00,,---,0.00,167.00,VWS V14.01,2013-03-23 11:48:00,
2013-03-23 07:53:00,33.7,26.6,29.77,WSW,246,19.0,21.0,75,0.00,,---,0.00,190.00,VWS V14.01,2013-03-23 11:53:00,
2013-03-23 07:58:00,33.7,26.3,29.77,WSW,248,19.0,21.0,74,0.00,,---,0.00,213.00,VWS V14.01,2013-03-23 11:58:00,
2013-03-23 08:00:00,33.8,26.4,29.77,WSW,241,20.0,21.0,74,0.00,,,0.00,225.00,VWS V14.01,2013-03-23 12:00:00,
2013-03-23 08:03:00,33.9,26.5,29.78,WSW,244,19.0,21.0,74,0.00,,---,0.00,234.00,VWS V14.01,2013-03-23 12:03:00,
2013-03-23 08:08:00,34.0,26.6,29.77,WSW,249,19.0,23.0,74,0.00,,---,0.00,255.00,VWS V14.01,2013-03-23 12:08:00,
2013-03-23 08:13:00,33.9,25.8,29.77,WSW,245,18.0,23.0,72,0.00,,---,0.00,279.00,VWS V14.01,2013-03-23 12:13:00,
2013-03-23 08:15:00,33.2,26.1,29.77,WSW,250,15.0,21.0,75,0.00,,,0.00,53.00,VWS V14.01,2013-03-23 12:15:00,
2013-03-23 08:18:00,34.1,26.4,29.77,WSW,254,20.0,20.0,73,0.00,,---,0.00,302.00,VWS V14.01,2013-03-23 12:18:00,
2013-03-23 08:23:00,34.1,26.0,29.77,WSW,251,18.0,21.0,72,0.00,,---,0.00,323.00,VWS V14.01,2013-03-23 12:23:00,
2013-03-23 08:28:00,34.1,26.0,29.77,WSW,254,18.0,23.0,72,0.00,,---,0.00,339.00,VWS V14.01,2013-03-23 12:28:00,
2013-03-23 08:30:00,33.3,26.2,29.77,WSW,248,18.0,22.0,75,0.00,,,0.00,100.00,VWS V14.01,2013-03-23 12:30:00,
2013-03-23 08:33:00,34.1,26.0,29.76,WSW,257,19.0,23.0,72,0.00,,---,0.00,359.00,VWS V14.01,2013-03-23 12:33:00,
2013-03-23 08:38:00,34.2,26.1,29.76,West,259,19.0,23.0,72,0.00,,---,0.00,380.00,VWS V14.01,2013-03-23 12:38:00,
2013-03-23 08:43:00,34.2,26.1,29.76,West,259,21.0,24.0,72,0.00,,---,0.00,392.00,VWS V14.01,2013-03-23 12:43:00,
2013-03-23 08:48:00,34.4,26.3,29.76,West,263,17.0,23.0,72,0.00,,---,0.00,408.00,VWS V14.01,2013-03-23 12:48:00,
2013-03-23 08:53:00,34.6,26.5,29.76,West,266,17.0,23.0,72,0.00,,---,0.00,429.00,VWS V14.01,2013-03-23 12:53:00,
2013-03-23 08:58:00,34.8,26.0,29.75,West,263,24.0,24.0,70,0.00,,---,0.00,446.00,VWS V14.01,2013-03-23 12:58:00,
2013-03-23 09:00:00,35.0,26.6,29.75,WSW,257,22.0,25.0,71,0.00,,,0.00,457.00,VWS V14.01,2013-03-23 13:00:00,
2013-03-23 09:03:00,35.0,26.6,29.75,West,263,20.0,23.0,71,0.00,,---,0.00,466.00,VWS V14.01,2013-03-23 13:03:00,
2013-03-23 09:08:00,35.2,26.4,29.75,West,260,19.0,23.0,70,0.00,,---,0.00,478.00,VWS V14.01,2013-03-23 13:08:00,
2013-03-23 09:13:00,35.4,26.3,29.75,WSW,250,17.0,24.0,69,0.00,,---,0.00,496.00,VWS V14.01,2013-03-23 13:13:00,
2013-03-23 09:15:00,34.0,26.3,29.77,WSW,242,17.0,23.0,73,0.00,,,0.00,292.00,VWS V14.01,2013-03-23 13:15:00,
2013-03-23 09:18:00,35.6,26.1,29.74,West,264,19.0,24.0,68,0.00,,---,0.00,513.00,VWS V14.01,2013-03-23 13:18:00,
2013-03-23 09:23:00,35.8,26.3,29.74,West,263,23.0,24.0,68,0.00,,---,0.00,527.00,VWS V14.01,2013-03-23 13:23:00,
2013-03-23 09:28:00,36.2,26.0,29.74,West,263,25.0,27.0,66,0.00,,---,0.00,550.00,VWS V14.01,2013-03-23 13:28:00,
2013-03-23 09:33:00,36.4,24.2,29.74,West,259,24.0,27.0,61,0.00,,---,0.00,591.00,VWS V14.01,2013-03-23 13:33:00,
2013-03-23 09:38:00,36.5,25.5,29.74,West,269,26.0,28.0,64,0.00,,---,0.00,601.00,VWS V14.01,2013-03-23 13:38:00,
2013-03-23 09:43:00,36.8,25.0,29.74,West,268,24.0,28.0,62,0.00,,---,0.00,680.00,VWS V14.01,2013-03-23 13:43:00,
2013-03-23 09:45:00,34.3,25.9,29.76,WSW,254,18.0,24.0,71,0.00,,,0.00,404.00,VWS V14.01,2013-03-23 13:45:00,
2013-03-23 09:48:00,37.0,25.2,29.74,West,265,21.0,27.0,62,0.00,,---,0.00,686.00,VWS V14.01,2013-03-23 13:48:00,
2013-03-23 09:53:00,37.0,24.8,29.74,West,281,17.0,29.0,61,0.00,,---,0.00,817.00,VWS V14.01,2013-03-23 13:53:00,
2013-03-23 09:58:00,37.3,24.3,29.74,NW,314,22.0,29.0,59,0.00,,---,0.00,844.00,VWS V14.01,2013-03-23 13:58:00,
2013-03-23 10:00:00,35.0,26.6,29.75,WSW,257,22.0,25.0,71,0.00,,,0.00,457.00,VWS V14.01,2013-03-23 14:00:00,
2013-03-23 10:04:00,37.4,25.2,29.74,NW,321,23.0,27.0,61,0.00,,---,0.00,297.00,VWS V14.01,2013-03-23 14:04:00,
2013-03-23 10:09:00,37.3,24.7,29.74,West,265,21.0,29.0,60,0.00,,---,0.00,394.00,VWS V14.01,2013-03-23 14:09:00,
2013-03-23 10:14:00,37.4,25.2,29.74,West,270,21.0,29.0,61,0.00,,---,0.00,394.00,VWS V14.01,2013-03-23 14:14:00,
2013-03-23 10:15:00,35.5,26.7,29.74,West,262,18.0,24.0,70,0.00,,,0.00,504.00,VWS V14.01,2013-03-23 14:15:00,
2013-03-23 10:19:00,37.4,24.8,29.74,West,269,14.0,24.0,60,0.00,,---,0.00,220.00,VWS V14.01,2013-03-23 14:19:00,
2013-03-23 10:24:00,37.7,25.5,29.74,WNW,298,17.0,24.0,61,0.00,,---,0.00,861.00,VWS V14.01,2013-03-23 14:24:00,
2013-03-23 10:29:00,37.6,25.4,29.74,WNW,286,12.0,27.0,61,0.00,,---,0.00,810.00,VWS V14.01,2013-03-23 14:29:00,
2013-03-23 10:30:00,36.4,24.6,29.74,West,269,21.0,30.0,62,0.00,,,0.00,555.00,VWS V14.01,2013-03-23 14:30:00,
2013-03-23 10:34:00,37.7,24.7,29.73,West,277,21.0,25.0,59,0.00,,---,0.00,200.00,VWS V14.01,2013-03-23 14:34:00,
2013-03-23 10:39:00,37.8,24.4,29.73,West,277,20.0,25.0,58,0.00,,---,0.00,330.00,VWS V14.01,2013-03-23 14:39:00,
2013-03-23 10:44:00,38.1,25.1,29.74,WNW,282,17.0,25.0,59,0.00,,---,0.00,330.00,VWS V14.01,2013-03-23 14:44:00,
2013-03-23 10:45:00,36.9,25.1,29.74,NW,311,17.0,28.0,62,0.00,,,0.00,686.00,VWS V14.01,2013-03-23 14:45:00,
2013-03-23 10:49:00,38.3,25.6,29.73,West,262,19.0,21.0,60,0.00,,---,0.00,290.00,VWS V14.01,2013-03-23 14:49:00,
2013-03-23 10:54:00,38.5,24.2,29.73,West,271,18.0,21.0,56,0.00,,---,0.00,311.00,VWS V14.01,2013-03-23 14:54:00,
2013-03-23 10:59:00,38.5,23.3,29.73,NW,304,18.0,24.0,54,0.00,,---,0.00,288.00,VWS V14.01,2013-03-23 14:59:00,
2013-03-23 11:00:00,37.4,24.8,29.74,West,262,22.0,29.0,60,0.00,,,0.00,819.00,VWS V14.01,2013-03-23 15:00:00,
2013-03-23 11:04:00,38.7,23.1,29.73,West,275,14.0,28.0,53,0.00,,---,0.00,301.00,VWS V14.01,2013-03-23 15:04:00,
2013-03-23 11:09:00,38.7,22.6,29.73,WNW,297,24.0,28.0,52,0.00,,---,0.00,301.00,VWS V14.01,2013-03-23 15:09:00,
2013-03-23 11:14:00,38.6,24.7,29.73,West,279,24.0,30.0,57,0.00,,---,0.00,480.00,VWS V14.01,2013-03-23 15:14:00,
2013-03-23 11:15:00,38.7,23.9,29.73,West,267,19.0,30.0,55,0.00,,,0.00,315.00,VWS V14.01,2013-03-23 15:15:00,
2013-03-23 11:19:00,38.9,24.6,29.73,NW,315,17.0,19.0,56,0.00,,---,0.00,302.00,VWS V14.01,2013-03-23 15:19:00,
2013-03-23 11:24:00,38.7,22.1,29.73,WNW,283,15.0,30.0,51,0.00,,---,0.00,267.00,VWS V14.01,2013-03-23 15:24:00,
2013-03-23 11:29:00,38.7,23.5,29.73,West,259,22.0,30.0,54,0.00,,---,0.00,251.00,VWS V14.01,2013-03-23 15:29:00,
2013-03-23 11:30:00,37.7,25.9,29.74,West,261,22.0,27.0,62,0.00,,,0.00,200.00,VWS V14.01,2013-03-23 15:30:00,
2013-03-23 11:34:00,38.6,23.8,29.73,West,279,17.0,28.0,55,0.00,,---,0.00,301.00,VWS V14.01,2013-03-23 15:34:00,
2013-03-23 11:39:00,38.5,23.8,29.72,West,260,24.0,28.0,55,0.00,,---,0.00,255.00,VWS V14.01,2013-03-23 15:39:00,
2013-03-23 11:44:00,38.5,22.9,29.72,West,269,24.0,29.0,53,0.00,,---,0.00,271.00,VWS V14.01,2013-03-23 15:44:00,
2013-03-23 11:45:00,38.1,24.6,29.74,West,273,14.0,25.0,58,0.00,,,0.00,548.00,VWS V14.01,2013-03-23 15:45:00,
2013-03-23 11:49:00,38.8,23.1,29.72,West,261,15.0,21.0,53,0.00,,---,0.00,580.00,VWS V14.01,2013-03-23 15:49:00,
2013-03-23 11:54:00,39.3,23.2,29.72,WNW,284,17.0,27.0,52,0.00,,---,0.00,1020.00,VWS V14.01,2013-03-23 15:54:00,
2013-03-23 11:59:00,39.4,22.8,29.72,West,269,22.0,30.0,51,0.00,,---,0.00,267.00,VWS V14.01,2013-03-23 15:59:00,
2013-03-23 12:00:00,38.6,24.3,29.73,WNW,282,17.0,24.0,56,0.00,,,0.00,288.00,VWS V14.01,2013-03-23 16:00:00,
2013-03-23 12:04:00,39.4,23.2,29.72,West,270,20.0,30.0,52,0.00,,---,0.00,988.00,VWS V14.01,2013-03-23 16:04:00,
2013-03-23 12:09:00,39.4,23.7,29.72,West,270,25.0,30.0,53,0.00,,---,0.00,315.00,VWS V14.01,2013-03-23 16:09:00,
2013-03-23 12:14:00,39.1,22.0,29.72,West,275,16.0,31.0,50,0.00,,---,0.00,318.00,VWS V14.01,2013-03-23 16:14:00,
2013-03-23 12:15:00,38.7,23.9,29.73,West,267,19.0,30.0,55,0.00,,,0.00,315.00,VWS V14.01,2013-03-23 16:15:00,
2013-03-23 12:19:00,39.1,22.0,29.72,West,268,21.0,25.0,50,0.00,,---,0.00,309.00,VWS V14.01,2013-03-23 16:19:00,
2013-03-23 12:24:00,39.0,22.9,29.72,West,270,22.0,32.0,52,0.00,,---,0.00,283.00,VWS V14.01,2013-03-23 16:24:00,
2013-03-23 12:29:00,39.3,23.6,29.72,West,273,25.0,32.0,53,0.00,,---,0.00,1032.00,VWS V14.01,2013-03-23 16:29:00,
2013-03-23 12:30:00,38.6,23.4,29.73,West,259,19.0,30.0,54,0.00,,,0.00,269.00,VWS V14.01,2013-03-23 16:30:00,
2013-03-23 12:34:00,39.4,22.8,29.71,West,270,27.0,33.0,51,0.00,,---,0.00,1062.00,VWS V14.01,2013-03-23 16:34:00,
2013-03-23 12:39:00,39.2,22.6,29.72,West,267,24.0,33.0,51,0.00,,---,0.00,1065.00,VWS V14.01,2013-03-23 16:39:00,
2013-03-23 12:44:00,39.1,21.6,29.71,West,261,29.0,33.0,49,0.00,,---,0.00,1025.00,VWS V14.01,2013-03-23 16:44:00,
2013-03-23 12:45:00,38.5,23.8,29.72,NW,311,16.0,31.0,55,0.00,,,0.00,297.00,VWS V14.01,2013-03-23 16:45:00,
2013-03-23 12:49:00,39.3,22.7,29.72,West,269,24.0,32.0,51,0.00,,---,0.00,939.00,VWS V14.01,2013-03-23 16:49:00,
2013-03-23 12:54:00,39.4,23.2,29.72,West,269,24.0,32.0,52,0.00,,---,0.00,689.00,VWS V14.01,2013-03-23 16:54:00,
2013-03-23 12:59:00,39.3,22.2,29.71,West,265,25.0,32.0,50,0.00,,---,0.00,1016.00,VWS V14.01,2013-03-23 16:59:00,
2013-03-23 13:00:00,39.3,22.7,29.72,West,278,16.0,30.0,51,0.00,,,0.00,267.00,VWS V14.01,2013-03-23 17:00:00,
2013-03-23 13:04:00,39.4,22.3,29.71,West,269,24.0,32.0,50,0.00,,---,0.00,993.00,VWS V14.01,2013-03-23 17:04:00,
2013-03-23 13:09:00,39.5,22.9,29.71,West,267,20.0,32.0,51,0.00,,---,0.00,241.00,VWS V14.01,2013-03-23 17:09:00,
2013-03-23 13:14:00,39.7,24.0,29.71,West,266,24.0,33.0,53,0.00,,---,0.00,904.00,VWS V14.01,2013-03-23 17:14:00,
2013-03-23 13:15:00,39.6,22.0,29.71,West,273,26.0,33.0,49,0.00,,,0.00,900.00,VWS V14.01,2013-03-23 17:15:00,
2013-03-23 13:19:00,39.6,21.5,29.71,West,269,25.0,32.0,48,0.00,,---,0.00,861.00,VWS V14.01,2013-03-23 17:19:00,
2013-03-23 13:24:00,39.4,21.8,29.70,West,260,24.0,33.0,49,0.00,,---,0.00,853.00,VWS V14.01,2013-03-23 17:24:00,
2013-03-23 13:29:00,39.5,21.9,29.70,WSW,256,17.0,33.0,49,0.00,,---,0.00,854.00,VWS V14.01,2013-03-23 17:29:00,
2013-03-23 13:30:00,39.4,21.8,29.72,West,269,26.0,32.0,49,0.00,,,0.00,1058.00,VWS V14.01,2013-03-23 17:30:00,
2013-03-23 13:34:00,39.7,22.1,29.71,West,273,26.0,29.0,49,0.00,,---,0.00,882.00,VWS V14.01,2013-03-23 17:34:00,
2013-03-23 13:39:00,39.7,22.6,29.70,WSW,252,24.0,30.0,50,0.00,,---,0.00,830.00,VWS V14.01,2013-03-23 17:39:00,
2013-03-23 13:44:00,39.7,22.6,29.70,West,271,32.0,33.0,50,0.00,,---,0.00,909.00,VWS V14.01,2013-03-23 17:44:00,
2013-03-23 13:45:00,39.7,22.1,29.71,West,265,28.0,33.0,49,0.00,,,0.00,853.00,VWS V14.01,2013-03-23 17:45:00,
2013-03-23 13:49:00,39.7,22.1,29.71,West,264,28.0,30.0,49,0.00,,---,0.00,849.00,VWS V14.01,2013-03-23 17:49:00,
2013-03-23 13:54:00,39.6,21.5,29.71,West,275,27.0,31.0,48,0.00,,---,0.00,828.00,VWS V14.01,2013-03-23 17:54:00,
2013-03-23 13:59:00,39.6,21.5,29.70,West,263,27.0,32.0,48,0.00,,---,0.00,884.00,VWS V14.01,2013-03-23 17:59:00,
2013-03-23 14:00:00,39.4,23.2,29.71,West,261,26.0,32.0,52,0.00,,,0.00,997.00,VWS V14.01,2013-03-23 18:00:00,
2013-03-23 14:04:00,39.6,20.5,29.70,WSW,257,26.0,34.0,46,0.00,,---,0.00,193.00,VWS V14.01,2013-03-23 18:04:00,
2013-03-23 14:09:00,39.8,21.2,29.70,West,265,22.0,34.0,47,0.00,,---,0.00,889.00,VWS V14.01,2013-03-23 18:09:00,
2013-03-23 14:14:00,40.6,21.5,29.70,West,266,16.0,34.0,46,0.00,,---,0.00,879.00,VWS V14.01,2013-03-23 18:14:00,
2013-03-23 14:15:00,40.7,22.1,29.70,West,276,22.0,34.0,47,0.00,,,0.00,803.00,VWS V14.01,2013-03-23 18:15:00,
2013-03-23 14:19:00,40.8,22.1,29.70,West,270,28.0,30.0,47,0.00,,---,0.00,867.00,VWS V14.01,2013-03-23 18:19:00,
2013-03-23 14:24:00,40.5,20.9,29.70,West,263,28.0,33.0,45,0.00,,---,0.00,842.00,VWS V14.01,2013-03-23 18:24:00,
2013-03-23 14:30:00,40.2,21.1,29.70,West,273,24.0,33.0,46,0.00,,---,0.00,195.00,VWS V14.01,2013-03-23 18:30:00,
2013-03-23 14:35:00,40.4,22.3,29.70,West,271,28.0,32.0,48,0.00,,---,0.00,830.00,VWS V14.01,2013-03-23 18:35:00,
2013-03-23 14:40:00,40.5,20.9,29.70,WNW,292,21.0,32.0,45,0.00,,---,0.00,207.00,VWS V14.01,2013-03-23 18:40:00,
2013-03-23 14:45:00,41.0,22.8,29.70,West,279,20.0,32.0,48,0.00,,---,0.00,895.00,VWS V14.01,2013-03-23 18:45:00,
2013-03-23 14:50:00,41.3,22.1,29.70,West,268,22.0,28.0,46,0.00,,---,0.00,847.00,VWS V14.01,2013-03-23 18:50:00,
2013-03-23 14:55:00,41.5,21.2,29.69,West,273,17.0,31.0,44,0.00,,---,0.00,853.00,VWS V14.01,2013-03-23 18:55:00,
2013-03-23 15:00:00,41.2,21.5,29.69,West,273,28.0,32.0,45,0.00,,---,0.00,775.00,VWS V14.01,2013-03-23 19:00:00,
2013-03-23 15:05:00,41.0,20.2,29.69,West,266,27.0,32.0,43,0.00,,---,0.00,765.00,VWS V14.01,2013-03-23 19:05:00,
2013-03-23 15:10:00,41.2,22.0,29.69,West,262,20.0,32.0,46,0.00,,---,0.00,733.00,VWS V14.01,2013-03-23 19:10:00,
2013-03-23 15:15:00,41.4,21.7,29.69,West,264,30.0,34.0,45,0.00,,---,0.00,742.00,VWS V14.01,2013-03-23 19:15:00,
2013-03-23 15:20:00,41.0,20.8,29.69,West,281,23.0,32.0,44,0.00,,---,0.00,717.00,VWS V14.01,2013-03-23 19:20:00,
2013-03-23 15:25:00,41.3,22.1,29.69,West,267,25.0,32.0,46,0.00,,---,0.00,703.00,VWS V14.01,2013-03-23 19:25:00,
2013-03-23 15:30:00,41.1,21.9,29.69,West,263,19.0,32.0,46,0.00,,---,0.00,176.00,VWS V14.01,2013-03-23 19:30:00,
2013-03-23 15:35:00,41.4,22.2,29.69,West,264,23.0,30.0,46,0.00,,---,0.00,742.00,VWS V14.01,2013-03-23 19:35:00,
2013-03-23 15:40:00,41.6,20.8,29.68,West,267,17.0,31.0,43,0.00,,---,0.00,691.00,VWS V14.01,2013-03-23 19:40:00,
2013-03-23 15:45:00,41.4,22.7,29.68,West,269,24.0,32.0,47,0.00,,---,0.00,696.00,VWS V14.01,2013-03-23 19:45:00,
2013-03-23 15:50:00,41.4,21.1,29.69,WNW,284,25.0,28.0,44,0.00,,---,0.00,334.00,VWS V14.01,2013-03-23 19:50:00,
2013-03-23 15:55:00,41.6,21.9,29.68,West,268,28.0,32.0,45,0.00,,---,0.00,158.00,VWS V14.01,2013-03-23 19:55:00,
2013-03-23 16:00:00,41.4,21.1,29.69,West,270,27.0,32.0,44,0.00,,---,0.00,628.00,VWS V14.01,2013-03-23 20:00:00,
2013-03-23 16:05:00,41.5,20.7,29.68,West,265,23.0,31.0,43,0.00,,---,0.00,626.00,VWS V14.01,2013-03-23 20:05:00,
2013-03-23 16:10:00,41.3,22.1,29.68,West,263,29.0,34.0,46,0.00,,---,0.00,178.00,VWS V14.01,2013-03-23 20:10:00,
2013-03-23 16:15:00,41.3,22.1,29.68,West,265,27.0,34.0,46,0.00,,---,0.00,141.00,VWS V14.01,2013-03-23 20:15:00,
2013-03-23 16:20:00,41.9,21.6,29.68,WNW,300,23.0,34.0,44,0.00,,---,0.00,534.00,VWS V14.01,2013-03-23 20:20:00,
2013-03-23 16:25:00,41.7,20.9,29.68,WNW,293,17.0,34.0,43,0.00,,---,0.00,111.00,VWS V14.01,2013-03-23 20:25:00,
2013-03-23 16:30:00,42.2,20.8,29.68,WNW,299,24.0,34.0,42,0.00,,---,0.00,459.00,VWS V14.01,2013-03-23 20:30:00,
2013-03-23 16:35:00,42.3,20.9,29.69,NNW,329,15.0,31.0,42,0.00,,---,0.00,464.00,VWS V14.01,2013-03-23 20:35:00,
2013-03-23 16:40:00,42.5,21.0,29.69,NW,306,15.0,31.0,42,0.00,,---,0.00,450.00,VWS V14.01,2013-03-23 20:40:00,
2013-03-23 16:45:00,42.3,22.0,29.69,West,261,14.0,31.0,44,0.00,,---,0.00,120.00,VWS V14.01,2013-03-23 20:45:00,
2013-03-23 16:50:00,42.4,23.1,29.69,West,267,24.0,26.0,46,0.00,,---,0.00,406.00,VWS V14.01,2013-03-23 20:50:00,
2013-03-23 16:55:00,42.3,21.4,29.69,WNW,290,20.0,29.0,43,0.00,,---,0.00,394.00,VWS V14.01,2013-03-23 20:55:00,
2013-03-23 17:00:00,42.1,21.2,29.69,NW,304,15.0,30.0,43,0.00,,---,0.00,350.00,VWS V14.01,2013-03-23 21:00:00,
2013-03-23 17:05:00,41.9,21.6,29.69,West,271,21.0,30.0,44,0.00,,---,0.00,301.00,VWS V14.01,2013-03-23 21:05:00,
2013-03-23 17:10:00,42.0,21.1,29.70,West,266,24.0,30.0,43,0.00,,---,0.00,234.00,VWS V14.01,2013-03-23 21:10:00,
2013-03-23 17:15:00,42.0,20.6,29.70,West,269,21.0,30.0,42,0.00,,---,0.00,234.00,VWS V14.01,2013-03-23 21:15:00,
2013-03-23 17:20:00,42.0,21.1,29.70,WNW,288,24.0,30.0,43,0.00,,---,0.00,255.00,VWS V14.01,2013-03-23 21:20:00,
2013-03-23 17:25:00,42.2,21.3,29.70,WNW,287,18.0,30.0,43,0.00,,---,0.00,250.00,VWS V14.01,2013-03-23 21:25:00,
2013-03-23 17:30:00,42.2,21.3,29.70,West,278,24.0,30.0,43,0.00,,---,0.00,220.00,VWS V14.01,2013-03-23 21:30:00,
2013-03-23 17:35:00,41.9,22.6,29.70,West,275,23.0,34.0,46,0.00,,---,0.00,186.00,VWS V14.01,2013-03-23 21:35:00,
2013-03-23 17:40:00,41.9,21.0,29.70,West,272,19.0,34.0,43,0.00,,---,0.00,167.00,VWS V14.01,2013-03-23 21:40:00,
2013-03-23 17:45:00,42.0,22.2,29.70,WNW,299,20.0,34.0,45,0.00,,---,0.00,163.00,VWS V14.01,2013-03-23 21:45:00,
2013-03-23 17:50:00,41.9,23.2,29.70,WNW,292,21.0,31.0,47,0.00,,---,0.00,167.00,VWS V14.01,2013-03-23 21:50:00,
2013-03-23 17:55:00,41.8,23.1,29.70,NW,306,18.0,31.0,47,0.00,,---,0.00,156.00,VWS V14.01,2013-03-23 21:55:00,
2013-03-23 18:00:00,41.7,21.4,29.70,West,279,24.0,34.0,44,0.00,,---,0.00,137.00,VWS V14.01,2013-03-23 22:00:00,
2013-03-23 18:05:00,41.7,23.0,29.71,West,268,21.0,28.0,47,0.00,,---,0.00,114.00,VWS V14.01,2013-03-23 22:05:00,
2013-03-23 18:10:00,41.6,21.3,29.71,WNW,282,22.0,34.0,44,0.00,,---,0.00,81.00,VWS V14.01,2013-03-23 22:10:00,
2013-03-23 18:15:00,41.5,21.8,29.71,West,267,25.0,34.0,45,0.00,,---,0.00,49.00,VWS V14.01,2013-03-23 22:15:00,
2013-03-23 18:20:00,41.5,21.2,29.71,WNW,282,16.0,29.0,44,0.00,,---,0.00,28.00,VWS V14.01,2013-03-23 22:20:00,
2013-03-23 18:25:00,41.4,21.7,29.72,West,274,22.0,33.0,45,0.00,,---,0.00,23.00,VWS V14.01,2013-03-23 22:25:00,
2013-03-23 18:30:00,41.3,22.1,29.72,West,279,16.0,33.0,46,0.00,,,0.00,19.00,VWS V14.01,2013-03-23 22:30:00,
2013-03-23 18:31:00,41.3,21.6,29.73,WNW,286,17.0,33.0,45,0.00,,---,0.00,19.00,VWS V14.01,2013-03-23 22:31:00,
2013-03-23 18:36:00,41.2,22.5,29.73,West,278,22.0,25.0,47,0.00,,---,0.00,18.00,VWS V14.01,2013-03-23 22:36:00,
2013-03-23 18:41:00,41.1,22.9,29.73,NW,309,21.0,33.0,48,0.00,,---,0.00,16.00,VWS V14.01,2013-03-23 22:41:00,
2013-03-23 18:45:00,41.0,22.8,29.73,West,267,24.0,33.0,48,0.00,,,0.00,12.00,VWS V14.01,2013-03-23 22:45:00,
2013-03-23 18:46:00,41.0,22.8,29.73,West,277,21.0,33.0,48,0.00,,---,0.00,12.00,VWS V14.01,2013-03-23 22:46:00,
2013-03-23 18:51:00,40.7,22.5,29.73,West,275,22.0,26.0,48,0.00,,---,0.00,11.00,VWS V14.01,2013-03-23 22:51:00,
2013-03-23 18:56:00,40.7,23.0,29.74,West,261,22.0,26.0,49,0.00,,---,0.00,7.00,VWS V14.01,2013-03-23 22:56:00,
2013-03-23 19:00:00,41.7,21.4,29.70,WNW,295,19.0,34.0,44,0.00,,,0.00,137.00,VWS V14.01,2013-03-23 23:00:00,
2013-03-23 19:01:00,40.6,23.4,29.75,West,274,24.0,28.0,50,0.00,,---,0.00,5.00,VWS V14.01,2013-03-23 23:01:00,
2013-03-23 19:06:00,40.5,22.9,29.75,West,269,20.0,24.0,49,0.00,,---,0.00,0.00,VWS V14.01,2013-03-23 23:06:00,
2013-03-23 19:11:00,40.4,21.8,29.75,WNW,286,19.0,30.0,47,0.00,,---,0.00,0.00,VWS V14.01,2013-03-23 23:11:00,
2013-03-23 19:15:00,41.5,21.8,29.71,West,265,24.0,34.0,45,0.00,,,0.00,49.00,VWS V14.01,2013-03-23 23:15:00,
2013-03-23 19:16:00,40.3,22.2,29.75,West,276,20.0,30.0,48,0.00,,---,0.00,0.00,VWS V14.01,2013-03-23 23:16:00,
2013-03-23 19:21:00,40.2,22.1,29.75,West,270,19.0,24.0,48,0.00,,---,0.00,0.00,VWS V14.01,2013-03-23 23:21:00,
2013-03-23 19:26:00,40.1,23.0,29.76,West,271,20.0,24.0,50,0.00,,---,0.00,0.00,VWS V14.01,2013-03-23 23:26:00,
2013-03-23 19:30:00,40.1,22.5,29.76,West,264,16.0,24.0,49,0.00,,,0.00,0.00,VWS V14.01,2013-03-23 23:30:00,
2013-03-23 19:31:00,40.1,22.5,29.76,West,280,15.0,24.0,49,0.00,,---,0.00,0.00,VWS V14.01,2013-03-23 23:31:00,
2013-03-23 19:36:00,40.1,23.0,29.76,West,279,23.0,26.0,50,0.00,,---,0.00,0.00,VWS V14.01,2013-03-23 23:36:00,
2013-03-23 19:41:00,40.0,22.0,29.77,WNW,288,17.0,-999.0,48,-99.99,,,0.00,0,weatherlink.com 1.10,2013-03-23 23:41:00,
2013-03-23 19:45:00,41.0,22.8,29.73,West,267,24.0,33.0,48,0.00,,,0.00,12.00,VWS V14.01,2013-03-23 23:45:00,
2013-03-23 19:46:00,40.0,22.9,29.76,West,274,16.0,21.0,50,0.00,,---,0.00,0.00,VWS V14.01,2013-03-23 23:46:00,
2013-03-23 19:51:00,39.9,23.3,29.77,WNW,287,18.0,23.0,51,0.00,,---,0.00,0.00,VWS V14.01,2013-03-23 23:51:00,
2013-03-23 19:56:00,39.9,22.3,29.77,West,279,22.0,24.0,49,0.00,,---,0.00,0.00,VWS V14.01,2013-03-23 23:56:00,
2013-03-23 20:00:00,40.6,23.4,29.75,West,278,17.0,28.0,50,0.00,,,0.00,5.00,VWS V14.01,2013-03-24 00:00:00,
2013-03-23 20:02:00,39.8,23.2,29.77,West,267,18.0,21.0,51,0.00,,---,0.00,0.00,VWS V14.01,2013-03-24 00:02:00,
2013-03-23 20:07:00,39.8,24.1,29.78,West,273,21.0,26.0,53,0.00,,---,0.00,0.00,VWS V14.01,2013-03-24 00:07:00,
2013-03-23 20:12:00,39.7,23.1,29.78,West,268,15.0,26.0,51,0.00,,---,0.00,0.00,VWS V14.01,2013-03-24 00:12:00,
2013-03-23 20:15:00,40.3,22.2,29.75,West,276,20.0,30.0,48,0.00,,,0.00,0.00,VWS V14.01,2013-03-24 00:15:00,
2013-03-23 20:17:00,39.7,23.1,29.78,West,275,16.0,22.0,51,0.00,,---,0.00,0.00,VWS V14.01,2013-03-24 00:17:00,
2013-03-23 20:22:00,39.6,23.9,29.78,West,277,18.0,22.0,53,0.00,,---,0.00,0.00,VWS V14.01,2013-03-24 00:22:00,
2013-03-23 20:27:00,39.5,23.8,29.78,West,265,16.0,26.0,53,0.00,,---,0.00,0.00,VWS V14.01,2013-03-24 00:27:00,
2013-03-23 20:30:00,39.5,22.9,29.79,West,271,21.0,26.0,51,0.00,,,0.00,0.00,VWS V14.01,2013-03-24 00:30:00,
2013-03-23 20:32:00,39.5,23.4,29.79,West,272,16.0,21.0,52,0.00,,---,0.00,0.00,VWS V14.01,2013-03-24 00:32:00,
2013-03-23 20:37:00,39.5,23.4,29.79,West,261,15.0,22.0,52,0.00,,---,0.00,0.00,VWS V14.01,2013-03-24 00:37:00,
2013-03-23 20:42:00,39.5,22.9,29.79,West,269,19.0,22.0,51,0.00,,---,0.00,0.00,VWS V14.01,2013-03-24 00:42:00,
2013-03-23 20:45:00,39.5,23.8,29.80,West,269,15.0,22.0,53,0.00,,,0.00,0.00,VWS V14.01,2013-03-24 00:45:00,
2013-03-23 20:47:00,39.4,22.8,29.80,West,265,15.0,18.0,51,0.00,,---,0.00,0.00,VWS V14.01,2013-03-24 00:47:00,
2013-03-23 20:52:00,39.3,23.6,29.80,WNW,296,18.0,21.0,53,0.00,,---,0.00,0.00,VWS V14.01,2013-03-24 00:52:00,
2013-03-23 20:57:00,39.3,23.2,29.80,West,281,19.0,21.0,52,0.00,,---,0.00,0.00,VWS V14.01,2013-03-24 00:57:00,
2013-03-23 21:00:00,39.2,22.6,29.80,West,267,18.0,23.0,51,0.00,,,0.00,0.00,VWS V14.01,2013-03-24 01:00:00,
2013-03-23 21:02:00,39.2,22.6,29.80,West,265,14.0,18.0,51,0.00,,---,0.00,0.00,VWS V14.01,2013-03-24 01:02:00,
2013-03-23 21:07:00,39.1,23.4,29.81,WSW,258,19.0,21.0,53,0.00,,---,0.00,0.00,VWS V14.01,2013-03-24 01:07:00,
2013-03-23 21:12:00,39.1,24.3,29.81,West,266,17.0,21.0,55,0.00,,---,0.00,0.00,VWS V14.01,2013-03-24 01:12:00,
2013-03-23 21:15:00,39.6,23.0,29.78,West,263,22.0,26.0,51,0.00,,,0.00,0.00,VWS V14.01,2013-03-24 01:15:00,
2013-03-23 21:17:00,39.0,23.8,29.81,West,269,17.0,19.0,54,0.00,,---,0.00,0.00,VWS V14.01,2013-03-24 01:17:00,
2013-03-23 21:22:00,39.0,22.4,29.81,West,267,17.0,22.0,51,0.00,,---,0.00,0.00,VWS V14.01,2013-03-24 01:22:00,
2013-03-23 21:27:00,38.9,23.2,29.81,West,268,15.0,22.0,53,0.00,,---,0.00,0.00,VWS V14.01,2013-03-24 01:27:00,
2013-03-23 21:30:00,39.5,22.9,29.79,West,271,21.0,26.0,51,0.00,,,0.00,0.00,VWS V14.01,2013-03-24 01:30:00,
2013-03-23 21:32:00,38.9,24.1,29.81,West,271,11.0,16.0,55,0.00,,---,0.00,0.00,VWS V14.01,2013-03-24 01:32:00,
2013-03-23 21:37:00,38.8,23.6,29.81,West,263,17.0,22.0,54,0.00,,---,0.00,0.00,VWS V14.01,2013-03-24 01:37:00,
2013-03-23 21:42:00,38.8,24.0,29.81,West,273,11.0,22.0,55,0.00,,---,0.00,0.00,VWS V14.01,2013-03-24 01:42:00,
2013-03-23 21:45:00,39.5,23.8,29.80,West,269,15.0,22.0,53,0.00,,,0.00,0.00,VWS V14.01,2013-03-24 01:45:00,
2013-03-23 21:47:00,38.7,24.4,29.81,West,269,11.0,21.0,56,0.00,,---,0.00,0.00,VWS V14.01,2013-03-24 01:47:00,
2013-03-23 21:52:00,38.6,23.8,29.81,West,267,14.0,22.0,55,0.00,,---,0.00,0.00,VWS V14.01,2013-03-24 01:52:00,
2013-03-23 21:57:00,38.5,23.8,29.81,West,267,19.0,22.0,55,0.00,,---,0.00,0.00,VWS V14.01,2013-03-24 01:57:00,
2013-03-23 22:00:00,39.2,22.6,29.80,West,267,18.0,23.0,51,0.00,,,0.00,0.00,VWS V14.01,2013-03-24 02:00:00,
2013-03-23 22:02:00,38.5,23.8,29.81,West,261,20.0,23.0,55,0.00,,---,0.00,0.00,VWS V14.01,2013-03-24 02:02:00,
2013-03-23 22:07:00,38.5,23.3,29.82,West,265,17.0,23.0,54,0.00,,---,0.00,0.00,VWS V14.01,2013-03-24 02:07:00,
2013-03-23 22:12:00,38.5,23.8,29.82,West,267,14.0,23.0,55,0.00,,---,0.00,0.00,VWS V14.01,2013-03-24 02:12:00,
2013-03-23 22:15:00,39.1,23.0,29.81,West,269,16.0,21.0,52,0.00,,,0.00,0.00,VWS V14.01,2013-03-24 02:15:00,
2013-03-23 22:17:00,38.4,24.1,29.82,WSW,256,14.0,18.0,56,0.00,,---,0.00,0.00,VWS V14.01,2013-03-24 02:17:00,
2013-03-23 22:22:00,38.3,25.2,29.82,WSW,253,18.0,21.0,59,0.00,,---,0.00,0.00,VWS V14.01,2013-03-24 02:22:00,
2013-03-23 22:27:00,38.2,24.7,29.82,West,262,16.0,21.0,58,0.00,,---,0.00,0.00,VWS V14.01,2013-03-24 02:27:00,
2013-03-23 22:30:00,38.1,24.6,29.82,West,269,17.0,21.0,58,0.00,,,0.00,0.00,VWS V14.01,2013-03-24 02:30:00,
2013-03-23 22:32:00,38.0,24.5,29.82,West,263,17.0,19.0,58,0.00,,---,0.00,0.00,VWS V14.01,2013-03-24 02:32:00,
2013-03-23 22:37:00,37.9,24.0,29.82,West,263,17.0,20.0,57,0.00,,---,0.00,0.00,VWS V14.01,2013-03-24 02:37:00,
2013-03-23 22:42:00,37.9,24.0,29.82,WSW,258,18.0,20.0,57,0.00,,---,0.00,0.00,VWS V14.01,2013-03-24 02:42:00,
2013-03-23 22:45:00,38.7,23.5,29.81,West,263,19.0,23.0,54,0.00,,,0.00,0.00,VWS V14.01,2013-03-24 02:45:00,
2013-03-23 22:47:00,37.8,24.4,29.82,West,265,17.0,20.0,58,0.00,,---,0.00,0.00,VWS V14.01,2013-03-24 02:47:00,
2013-03-23 22:52:00,37.7,24.7,29.81,West,271,17.0,20.0,59,0.00,,---,0.00,0.00,VWS V14.01,2013-03-24 02:52:00,
2013-03-23 22:58:00,37.7,25.1,29.81,West,275,14.0,20.0,60,0.00,,---,0.00,0.00,VWS V14.01,2013-03-24 02:58:00,
2013-03-23 23:00:00,37.6,25.4,29.82,West,265,15.0,20.0,61,0.00,,,0.00,0.00,VWS V14.01,2013-03-24 03:00:00,
2013-03-23 23:02:00,37.6,25.4,29.81,West,268,15.0,17.0,61,0.00,,---,0.00,0.00,VWS V14.01,2013-03-24 03:02:00,
2013-03-23 23:07:00,37.5,24.1,29.81,West,261,17.0,22.0,58,0.00,,---,0.00,0.00,VWS V14.01,2013-03-24 03:07:00,
2013-03-23 23:13:00,37.5,24.9,29.81,West,265,16.0,22.0,60,0.00,,---,0.00,0.00,VWS V14.01,2013-03-24 03:13:00,
2013-03-23 23:15:00,37.5,24.9,29.81,West,261,17.0,22.0,60,0.00,,,0.00,0.00,VWS V14.01,2013-03-24 03:15:00,
2013-03-23 23:18:00,37.5,24.9,29.81,West,261,17.0,17.0,60,0.00,,---,0.00,0.00,VWS V14.01,2013-03-24 03:18:00,
2013-03-23 23:23:00,37.4,24.4,29.81,West,269,17.0,23.0,59,0.00,,---,0.00,0.00,VWS V14.01,2013-03-24 03:23:00,
2013-03-23 23:28:00,37.3,24.3,29.81,WSW,257,16.0,23.0,59,0.00,,---,0.00,0.00,VWS V14.01,2013-03-24 03:28:00,
2013-03-23 23:30:00,38.1,24.6,29.82,West,269,17.0,21.0,58,0.00,,,0.00,0.00,VWS V14.01,2013-03-24 03:30:00,
2013-03-23 23:33:00,37.3,25.1,29.81,WSW,255,19.0,20.0,61,0.00,,---,0.00,0.00,VWS V14.01,2013-03-24 03:33:00,
2013-03-23 23:38:00,37.2,24.2,29.80,West,260,22.0,24.0,59,0.00,,---,0.00,0.00,VWS V14.01,2013-03-24 03:38:00,
2013-03-23 23:43:00,37.3,25.5,29.81,West,264,21.0,25.0,62,0.00,,---,0.00,0.00,VWS V14.01,2013-03-24 03:43:00,
2013-03-23 23:45:00,37.8,24.8,29.82,West,267,18.0,20.0,59,0.00,,,0.00,0.00,VWS V14.01,2013-03-24 03:45:00,
2013-03-23 23:48:00,37.2,25.8,29.81,West,263,23.0,23.0,63,0.00,,---,0.00,0.00,VWS V14.01,2013-03-24 03:48:00,
2013-03-23 23:53:00,37.1,25.3,29.81,West,270,19.0,24.0,62,0.00,,---,0.00,0.00,VWS V14.01,2013-03-24 03:53:00,
2013-03-23 23:58:00,37.0,23.6,29.81,WSW,257,18.0,24.0,58,0.00,,---,0.00,0.00,VWS V14.01,2013-03-24 03:58:00,